Time;durP1;ratioP1;P1;durP2;ratioP2;P2;SDS_P1;SDS_P2;PMS_P1;PMS_P2;Temp;Humidity;BMP_temperature;BMP_pressure;BME280_temperature;BME280_humidity;BME280_pressure;Samples;Min_cycle;Max_cycle;Signal;HPM_P1;HPM_P2
2023/01/25 00:01:51;;;;;;;28.83;18.50;;;;;;;1.33;100.00;151709.91;4991795;28;20459;-76
2023/01/25 00:04:19;;;;;;;32.40;21.33;;;;;;;1.29;100.00;151698.38;4990320;28;20458;-76
2023/01/25 00:06:47;;;;;;;41.63;20.77;;;;;;;1.26;100.00;151690.66;4970379;28;20448;-76
2023/01/25 00:09:15;;;;;;;31.40;19.60;;;;;;;1.32;100.00;151707.38;4991518;28;20489;-76
2023/01/25 00:11:43;;;;;;;34.00;21.70;;;;;;;1.34;100.00;151711.19;4996010;28;20451;-76
2023/01/25 00:14:09;;;;;;;33.93;20.23;;;;;;;1.37;100.00;151718.91;4991110;28;20966;-76
2023/01/25 00:16:37;;;;;;;31.60;20.57;;;;;;;1.33;100.00;151709.91;4976365;28;20502;-76
2023/01/25 00:19:03;;;;;;;31.27;20.00;;;;;;;1.33;100.00;151708.63;4986112;28;20444;-76
2023/01/25 00:21:30;;;;;;;33.47;20.53;;;;;;;1.32;100.00;151706.06;4987622;28;20458;-76
2023/01/25 00:23:58;;;;;;;26.57;17.63;;;;;;;1.35;100.00;151713.78;4991810;28;20458;-76
2023/01/25 00:26:25;;;;;;;29.00;19.03;;;;;;;1.36;100.00;151716.31;4985891;28;20444;-76
2023/01/25 00:28:52;;;;;;;33.43;21.63;;;;;;;1.30;100.00;151702.19;4983874;28;20488;-76
2023/01/25 00:31:26;;;;;;;35.53;20.50;;;;;;;1.35;100.00;151715.03;4995492;28;20463;-76
2023/01/25 00:33:57;;;;;;;31.43;19.10;;;;;;;1.34;100.00;151711.19;4990391;28;21004;-76
2023/01/25 00:36:38;;;;;;;36.43;20.53;;;;;;;1.34;100.00;151711.19;4993014;28;20708;-76
2023/01/25 00:39:08;;;;;;;34.40;19.50;;;;;;;1.30;100.00;151702.19;4990297;28;20461;-76
2023/01/25 00:41:35;;;;;;;34.93;21.33;;;;;;;1.37;100.00;151718.91;4990550;28;20455;-76
2023/01/25 00:44:02;;;;;;;32.10;19.77;;;;;;;1.31;100.00;151703.50;4973422;28;20471;-76
2023/01/25 00:46:29;;;;;;;31.37;19.60;;;;;;;1.27;100.00;151693.22;4984858;28;20462;-76
2023/01/25 00:48:56;;;;;;;34.60;19.90;;;;;;;1.33;100.00;151709.91;4992356;28;20453;-76
2023/01/25 00:51:24;;;;;;;28.30;18.07;;;;;;;1.33;100.00;151708.63;4990217;28;20465;-76
2023/01/25 00:53:51;;;;;;;29.83;19.67;;;;;;;1.34;100.00;151711.19;4991836;28;20534;-76
2023/01/25 00:56:19;;;;;;;29.67;19.37;;;;;;;1.34;100.00;151711.19;4988859;28;20447;-76
2023/01/25 00:58:45;;;;;;;33.07;18.97;;;;;;;1.33;100.00;151708.63;4990390;28;20874;-76
2023/01/25 01:01:12;;;;;;;33.00;19.37;;;;;;;1.29;100.00;151698.38;4967630;28;20542;-76
2023/01/25 01:03:39;;;;;;;39.63;21.10;;;;;;;1.28;100.00;151695.78;4983564;28;20454;-76
2023/01/25 01:06:09;;;;;;;36.10;21.37;;;;;;;1.29;100.00;151699.66;4987892;28;20485;-76
2023/01/25 01:08:36;;;;;;;32.37;19.77;;;;;;;1.29;100.00;151698.38;4987365;28;20454;-76
2023/01/25 01:11:05;;;;;;;33.57;19.73;;;;;;;1.29;100.00;151698.38;4975950;28;20451;-76
2023/01/25 01:13:34;;;;;;;26.53;18.20;;;;;;;1.30;100.00;151700.94;4992698;28;20462;-76
2023/01/25 01:16:02;;;;;;;30.17;18.87;;;;;;;1.32;100.00;151706.06;4987565;28;20562;-76
2023/01/25 01:18:29;;;;;;;31.60;19.83;;;;;;;1.34;100.00;151711.19;4988326;28;20494;-76
2023/01/25 01:20:56;;;;;;;33.73;19.70;;;;;;;1.32;100.00;151706.06;4972512;28;20460;-76
2023/01/25 01:23:23;;;;;;;33.93;19.70;;;;;;;1.36;100.00;151716.31;4988079;28;20833;-75
2023/01/25 01:25:49;;;;;;;31.33;19.03;;;;;;;1.35;100.00;151715.03;4987596;28;20588;-76
2023/01/25 01:28:16;;;;;;;28.53;18.33;;;;;;;1.36;100.00;151716.31;5001770;28;20813;-76
2023/01/25 01:30:44;;;;;;;34.67;19.63;;;;;;;1.29;100.00;151698.38;4972930;28;20445;-76
2023/01/25 01:33:11;;;;;;;35.03;19.63;;;;;;;1.32;100.00;151706.06;4974013;28;21037;-76
2023/01/25 01:35:38;;;;;;;29.60;19.10;;;;;;;1.34;100.00;151711.19;4981981;28;20549;-76
2023/01/25 01:38:04;;;;;;;38.67;19.57;;;;;;;1.39;100.00;151724.03;4988698;28;20478;-76
2023/01/25 01:40:31;;;;;;;30.37;18.67;;;;;;;1.31;100.00;151703.50;4990634;28;20475;-76
2023/01/25 01:42:59;;;;;;;30.13;19.53;;;;;;;1.32;100.00;151706.06;4962114;28;20467;-76
2023/01/25 01:45:51;;;;;;;28.80;18.03;;;;;;;1.32;100.00;151706.06;4987036;28;20450;-76
2023/01/25 01:48:30;;;;;;;30.27;18.20;;;;;;;1.29;100.00;151698.38;4969648;28;20454;-76
2023/01/25 01:51:00;;;;;;;33.00;19.37;;;;;;;1.33;100.00;151708.63;4968192;28;20455;-76
2023/01/25 01:53:27;;;;;;;38.67;18.73;;;;;;;1.37;100.00;151718.91;4988978;28;20462;-76
2023/01/25 01:55:57;;;;;;;28.47;17.60;;;;;;;1.34;100.00;151712.50;4990588;28;20526;-76
2023/01/25 01:58:23;;;;;;;30.37;18.57;;;;;;;1.31;100.00;151704.78;4988260;28;20532;-76
2023/01/25 02:00:51;;;;;;;29.10;18.50;;;;;;;1.36;100.00;151717.63;4973334;28;20961;-76
2023/01/25 02:03:19;;;;;;;30.90;18.20;;;;;;;1.33;100.00;151708.63;4996828;28;20470;-76
2023/01/25 02:05:51;;;;;;;33.90;20.13;;;;;;;1.33;100.00;151709.91;4986398;28;20462;-76
2023/01/25 02:08:18;;;;;;;28.73;16.93;;;;;;;1.34;100.00;151712.50;4969967;28;20465;-76
2023/01/25 02:10:46;;;;;;;27.83;18.50;;;;;;;1.28;100.00;151695.78;4989295;28;20477;-76
2023/01/25 02:13:12;;;;;;;33.03;19.23;;;;;;;1.31;100.00;151704.78;4973375;28;20490;-75
2023/01/25 02:15:43;;;;;;;32.40;18.17;;;;;;;1.31;100.00;151704.78;4972448;28;21041;-76
2023/01/25 02:18:12;;;;;;;33.40;19.07;;;;;;;1.27;100.00;151693.22;4978639;28;20507;-76
2023/01/25 02:20:40;;;;;;;26.27;16.90;;;;;;;1.32;100.00;151707.38;4999669;28;20943;-76
2023/01/25 02:23:12;;;;;;;30.53;19.40;;;;;;;1.36;100.00;151716.31;4989389;28;20562;-75
2023/01/25 02:25:43;;;;;;;26.37;17.53;;;;;;;1.30;100.00;151702.19;4972195;28;20486;-76
2023/01/25 02:28:14;;;;;;;23.60;16.40;;;;;;;1.29;100.00;151699.66;4971929;28;20458;-76
2023/01/25 02:30:41;;;;;;;28.20;18.10;;;;;;;1.32;100.00;151706.06;4993569;28;20510;-75
2023/01/25 02:33:08;;;;;;;29.47;17.67;;;;;;;1.33;100.00;151709.91;4973504;28;20480;-75
2023/01/25 02:35:39;;;;;;;32.90;17.50;;;;;;;1.31;100.00;151703.50;4972708;28;21326;-75
2023/01/25 02:38:07;;;;;;;29.03;17.83;;;;;;;1.32;100.00;151707.38;4998517;28;20486;-75
2023/01/25 02:40:38;;;;;;;28.30;17.17;;;;;;;1.33;100.00;151708.63;4983597;28;20494;-75
2023/01/25 02:43:06;;;;;;;29.20;16.93;;;;;;;1.29;100.00;151699.66;4985545;28;20467;-76
2023/01/25 02:45:34;;;;;;;26.33;18.10;;;;;;;1.31;100.00;151703.50;4977758;28;20472;-75
2023/01/25 02:48:00;;;;;;;27.80;18.17;;;;;;;1.32;100.00;151706.06;4969672;28;20451;-75
2023/01/25 02:50:27;;;;;;;28.00;16.60;;;;;;;1.30;100.00;151702.19;4991610;28;20564;-75
2023/01/25 02:52:54;;;;;;;27.40;18.20;;;;;;;1.30;100.00;151700.94;4973095;28;20735;-75
2023/01/25 02:55:20;;;;;;;33.17;19.07;;;;;;;1.38;100.00;151722.75;4968212;28;20460;-75
2023/01/25 02:57:47;;;;;;;26.50;17.27;;;;;;;1.31;100.00;151703.50;4979886;28;20567;-75
2023/01/25 03:00:17;;;;;;;28.27;17.00;;;;;;;1.34;100.00;151712.50;4981807;28;20518;-75
2023/01/25 03:02:45;;;;;;;27.60;17.17;;;;;;;1.31;100.00;151703.50;4972006;28;20629;-75
2023/01/25 03:05:12;;;;;;;29.03;18.30;;;;;;;1.29;100.00;151699.66;4990398;28;20810;-75
2023/01/25 03:07:39;;;;;;;25.57;17.37;;;;;;;1.36;100.00;151716.31;4974368;28;20772;-76
2023/01/25 03:10:08;;;;;;;28.80;17.70;;;;;;;1.29;100.00;151698.38;4976123;28;20543;-75
2023/01/25 03:12:35;;;;;;;28.50;17.40;;;;;;;1.27;100.00;151693.22;4966420;28;20919;-75
2023/01/25 03:15:02;;;;;;;27.50;16.53;;;;;;;1.31;100.00;151703.50;4967550;28;20542;-76
2023/01/25 03:17:31;;;;;;;31.00;18.90;;;;;;;1.32;100.00;151707.38;4988673;28;20466;-75
2023/01/25 03:19:57;;;;;;;28.30;17.10;;;;;;;1.30;100.00;151700.94;4990434;28;20474;-75
2023/01/25 03:22:25;;;;;;;26.10;16.07;;;;;;;1.29;100.00;151699.66;4987924;28;20478;-76
2023/01/25 03:24:52;;;;;;;30.87;18.33;;;;;;;1.33;100.00;151708.63;4992260;28;20467;-75
2023/01/25 03:27:19;;;;;;;28.17;16.40;;;;;;;1.29;100.00;151699.66;4977227;28;20483;-75
2023/01/25 03:30:10;;;;;;;26.33;16.37;;;;;;;1.32;100.00;151707.38;4965375;28;20458;-75
2023/01/25 03:32:38;;;;;;;27.33;15.03;;;;;;;1.31;100.00;151703.50;4973016;28;20447;-75
2023/01/25 03:35:09;;;;;;;26.80;16.13;;;;;;;1.36;100.00;151716.31;4991560;28;20458;-75
2023/01/25 03:37:35;;;;;;;26.00;16.07;;;;;;;1.32;100.00;151707.38;4992401;28;20472;-75
2023/01/25 03:40:04;;;;;;;26.80;15.30;;;;;;;1.33;100.00;151708.63;4990729;28;20471;-76
2023/01/25 03:42:31;;;;;;;23.17;16.10;;;;;;;1.34;100.00;151711.19;4984139;28;20490;-76
2023/01/25 03:44:58;;;;;;;26.60;15.50;;;;;;;1.34;100.00;151711.19;4991143;28;20625;-76
2023/01/25 03:47:25;;;;;;;28.13;17.90;;;;;;;1.37;100.00;151718.91;4997180;28;20457;-75
2023/01/25 03:49:54;;;;;;;26.80;16.00;;;;;;;1.33;100.00;151708.63;5001541;28;20442;-76
2023/01/25 03:52:23;;;;;;;26.20;14.63;;;;;;;1.35;100.00;151713.78;4998992;28;20896;-75
2023/01/25 03:54:49;;;;;;;25.63;15.80;;;;;;;1.36;100.00;151716.31;4988928;28;20456;-75
2023/01/25 03:57:16;;;;;;;24.17;17.30;;;;;;;1.31;100.00;151703.50;5022199;28;20457;-76
2023/01/25 03:59:52;;;;;;;21.50;14.80;;;;;;;1.32;100.00;151706.06;4976046;28;20515;-76
2023/01/25 04:02:19;;;;;;;21.80;15.00;;;;;;;1.34;100.00;151712.50;4977069;28;20515;-76
2023/01/25 04:04:46;;;;;;;25.73;15.77;;;;;;;1.32;100.00;151707.38;4992179;28;20447;-76
2023/01/25 04:07:16;;;;;;;22.37;13.33;;;;;;;1.35;100.00;151713.78;4985219;28;20608;-76
2023/01/25 04:09:43;;;;;;;24.53;15.43;;;;;;;1.31;100.00;151704.78;4989764;28;20937;-77
2023/01/25 04:12:11;;;;;;;23.67;13.40;;;;;;;1.31;100.00;151703.50;4975945;28;20456;-76
2023/01/25 04:14:38;;;;;;;20.43;12.53;;;;;;;1.30;100.00;151702.19;4973772;28;20496;-77
2023/01/25 04:17:07;;;;;;;19.90;13.10;;;;;;;1.29;100.00;151698.38;4991887;28;20922;-76
2023/01/25 04:19:39;;;;;;;19.37;12.87;;;;;;;1.28;100.00;151695.78;4991678;28;20462;-76
2023/01/25 04:22:11;;;;;;;22.57;14.00;;;;;;;1.32;100.00;151706.06;4974210;28;20446;-76
2023/01/25 04:24:39;;;;;;;20.33;12.20;;;;;;;1.27;100.00;151693.22;4988644;28;20488;-75
2023/01/25 04:27:07;;;;;;;21.10;13.30;;;;;;;1.26;100.00;151691.94;4970099;28;20886;-77
2023/01/25 04:29:40;;;;;;;22.43;11.33;;;;;;;1.28;100.00;151695.78;4974083;28;20457;-76
2023/01/25 04:32:07;;;;;;;18.90;11.63;;;;;;;1.25;100.00;151689.34;4974313;28;20994;-76
2023/01/25 04:34:34;;;;;;;22.07;12.70;;;;;;;1.24;100.00;151688.06;4971914;28;20466;-77
2023/01/25 04:37:01;;;;;;;17.57;11.97;;;;;;;1.21;100.00;151679.09;4973896;28;20459;-76
2023/01/25 04:39:32;;;;;;;19.13;12.33;;;;;;;1.20;100.00;151677.81;4991777;28;20487;-76
2023/01/25 04:42:00;;;;;;;17.70;12.57;;;;;;;1.22;100.00;151682.94;4988211;28;20837;-76
2023/01/25 04:44:27;;;;;;;19.70;11.67;;;;;;;1.24;100.00;151688.06;5001938;28;20892;-76
2023/01/25 04:46:54;;;;;;;18.00;11.50;;;;;;;1.24;100.00;151686.81;4964202;28;20456;-76
2023/01/25 04:49:21;;;;;;;17.07;12.30;;;;;;;1.23;100.00;151685.53;4987582;28;20450;-76
2023/01/25 04:51:47;;;;;;;17.60;10.77;;;;;;;1.18;100.00;151672.69;4970122;28;20460;-77
2023/01/25 04:54:14;;;;;;;18.53;12.03;;;;;;;1.24;100.00;151688.06;4984693;28;20554;-76
2023/01/25 04:56:42;;;;;;;21.10;12.40;;;;;;;1.25;100.00;151689.34;4987605;28;20495;-76
2023/01/25 04:59:10;;;;;;;22.10;12.40;;;;;;;1.26;100.00;151691.94;4991641;28;20506;-76
2023/01/25 05:01:37;;;;;;;21.80;13.07;;;;;;;1.26;100.00;151690.66;4989212;28;20446;-76
2023/01/25 05:04:06;;;;;;;18.63;12.00;;;;;;;1.27;100.00;151694.53;4986540;28;20510;-76
2023/01/25 05:06:38;;;;;;;15.83;11.27;;;;;;;1.29;100.00;151699.66;4976656;28;20509;-76
2023/01/25 05:09:04;;;;;;;19.23;12.97;;;;;;;1.29;100.00;151698.38;4972517;28;20449;-76
2023/01/25 05:11:33;;;;;;;20.30;12.77;;;;;;;1.30;100.00;151700.94;4985055;28;20461;-76
2023/01/25 05:14:17;;;;;;;16.30;12.30;;;;;;;1.26;100.00;151691.94;4969968;28;20460;-76
2023/01/25 05:16:46;;;;;;;15.17;10.57;;;;;;;1.21;100.00;151680.41;4986142;28;20962;-76
2023/01/25 05:19:13;;;;;;;16.10;11.87;;;;;;;1.27;100.00;151693.22;4985684;28;20479;-76
2023/01/25 05:21:58;;;;;;;16.77;10.70;;;;;;;1.28;100.00;151695.78;4991096;28;20434;-76
2023/01/25 05:24:27;;;;;;;15.90;11.70;;;;;;;1.26;100.00;151691.94;4970208;28;20461;-76
2023/01/25 05:26:59;;;;;;;17.80;11.40;;;;;;;1.29;100.00;151698.38;4961304;28;20434;-76
2023/01/25 05:29:29;;;;;;;16.73;10.83;;;;;;;1.29;100.00;151699.66;4992764;28;20446;-75
2023/01/25 05:32:00;;;;;;;20.53;13.00;;;;;;;1.26;100.00;151690.66;4988282;28;20552;-76
2023/01/25 05:34:28;;;;;;;20.57;11.73;;;;;;;1.24;100.00;151688.06;4969977;28;20490;-76
2023/01/25 05:36:55;;;;;;;16.37;10.07;;;;;;;1.32;100.00;151706.06;4968939;28;20464;-77
2023/01/25 05:39:22;;;;;;;15.63;11.13;;;;;;;1.23;100.00;151685.53;4973326;28;20467;-76
2023/01/25 05:41:50;;;;;;;18.80;12.10;;;;;;;1.24;100.00;151688.06;4972702;28;20456;-77
2023/01/25 05:44:17;;;;;;;18.30;10.80;;;;;;;1.32;100.00;151706.06;4971771;28;20501;-76
2023/01/25 05:46:48;;;;;;;19.30;11.93;;;;;;;1.22;100.00;151682.94;4970444;28;20571;-76
2023/01/25 05:49:17;;;;;;;19.20;12.33;;;;;;;1.28;100.00;151697.06;4973085;28;20808;-77
2023/01/25 05:51:44;;;;;;;20.20;11.17;;;;;;;1.23;100.00;151685.53;4973584;28;20474;-76
2023/01/25 05:54:12;;;;;;;17.10;11.60;;;;;;;1.23;100.00;151684.22;4984643;28;20520;-76
2023/01/25 05:56:41;;;;;;;16.10;12.13;;;;;;;1.20;100.00;151677.81;4971009;28;20747;-77
2023/01/25 05:59:10;;;;;;;18.03;11.30;;;;;;;1.19;100.00;151675.22;4989065;28;20466;-76
2023/01/25 06:01:37;;;;;;;19.07;11.10;;;;;;;1.18;100.00;151672.69;4981492;28;20440;-76
2023/01/25 06:04:05;;;;;;;18.10;10.87;;;;;;;1.20;100.00;151677.81;4962698;28;20702;-76
2023/01/25 06:06:32;;;;;;;14.97;10.73;;;;;;;1.21;100.00;151680.41;4970159;28;20537;-76
2023/01/25 06:08:59;;;;;;;15.43;11.10;;;;;;;1.22;100.00;151682.94;4986337;28;20540;-76
2023/01/25 06:11:26;;;;;;;16.80;11.17;;;;;;;1.19;100.00;151675.22;4969498;28;20453;-76
2023/01/25 06:13:54;;;;;;;17.77;11.77;;;;;;;1.21;100.00;151680.41;4972811;28;21297;-76
2023/01/25 06:16:21;;;;;;;16.30;11.43;;;;;;;1.27;100.00;151693.22;4995648;28;21632;-76
2023/01/25 06:19:18;;;;;;;15.43;11.03;;;;;;;1.21;100.00;151679.09;4970212;28;20794;-76
2023/01/25 06:21:52;;;;;;;20.20;11.20;;;;;;;1.22;100.00;151682.94;4981016;28;20963;-76
2023/01/25 06:24:19;;;;;;;17.63;11.40;;;;;;;1.20;100.00;151677.81;4962726;28;20465;-76
2023/01/25 06:26:46;;;;;;;16.00;11.00;;;;;;;1.22;100.00;151682.94;4984003;28;20451;-76
2023/01/25 06:29:13;;;;;;;13.93;9.87;;;;;;;1.19;100.00;151675.22;4981613;28;20530;-77
2023/01/25 06:31:39;;;;;;;16.90;10.63;;;;;;;1.24;100.00;151686.81;4986502;28;20555;-76
2023/01/25 06:34:07;;;;;;;19.07;12.43;;;;;;;1.20;100.00;151677.81;4986960;28;20456;-76
2023/01/25 06:36:35;;;;;;;19.90;12.90;;;;;;;1.26;100.00;151691.94;4984217;28;20459;-77
2023/01/25 06:39:02;;;;;;;14.77;10.30;;;;;;;1.20;100.00;151676.50;4982079;28;20835;-76
2023/01/25 06:41:29;;;;;;;16.13;11.57;;;;;;;1.21;100.00;151680.41;4981447;28;20447;-77
2023/01/25 06:43:56;;;;;;;17.87;11.40;;;;;;;1.20;100.00;151677.81;4984069;28;20491;-76
2023/01/25 06:46:22;;;;;;;17.00;10.87;;;;;;;1.18;100.00;151672.69;4984513;28;20455;-76
2023/01/25 06:48:49;;;;;;;16.63;11.43;;;;;;;1.19;100.00;151675.22;4989014;28;20463;-76
2023/01/25 06:51:16;;;;;;;17.60;11.93;;;;;;;1.21;100.00;151680.41;4985904;28;20576;-77
2023/01/25 06:53:46;;;;;;;18.80;11.27;;;;;;;1.19;100.00;151675.22;4985383;28;20553;-76
2023/01/25 06:56:14;;;;;;;20.27;10.87;;;;;;;1.16;100.00;151667.56;4979778;28;20466;-77
2023/01/25 06:58:41;;;;;;;17.40;12.40;;;;;;;1.15;100.00;151663.66;4988340;28;20801;-76
2023/01/25 07:01:12;;;;;;;17.33;11.60;;;;;;;1.17;100.00;151668.78;4981359;28;20550;-76
2023/01/25 07:03:39;;;;;;;16.27;10.40;;;;;;;1.18;100.00;151671.38;4999223;28;20491;-77
2023/01/25 07:06:08;;;;;;;17.30;11.07;;;;;;;1.16;100.00;151667.56;4987827;28;20546;-76
2023/01/25 07:08:35;;;;;;;16.87;11.57;;;;;;;1.21;100.00;151680.41;4973417;28;20946;-76
2023/01/25 07:11:08;;;;;;;17.10;11.30;;;;;;;1.20;100.00;151677.81;4987310;28;20459;-76
2023/01/25 07:13:35;;;;;;;15.87;11.30;;;;;;;1.19;100.00;151675.22;4980113;28;20455;-76
2023/01/25 07:16:04;;;;;;;17.20;11.43;;;;;;;1.23;100.00;151685.53;5006796;28;20527;-76
2023/01/25 07:18:31;;;;;;;15.93;11.17;;;;;;;1.22;100.00;151682.94;5019981;28;20559;-76
2023/01/25 07:21:02;;;;;;;17.07;11.30;;;;;;;1.18;100.00;151672.69;4990630;28;20536;-76
2023/01/25 07:23:31;;;;;;;16.10;10.90;;;;;;;1.20;100.00;151677.81;4987116;28;20454;-76
2023/01/25 07:25:58;;;;;;;18.13;11.83;;;;;;;1.24;100.00;151688.06;4981313;28;20456;-76
2023/01/25 07:28:26;;;;;;;18.70;11.30;;;;;;;1.20;100.00;151677.81;4984526;28;20509;-76
2023/01/25 07:30:53;;;;;;;13.30;10.00;;;;;;;1.23;100.00;151684.22;4988226;28;20440;-76
2023/01/25 07:33:19;;;;;;;15.90;10.07;;;;;;;1.19;100.00;151675.22;4987782;28;20473;-76
2023/01/25 07:35:47;;;;;;;17.80;11.97;;;;;;;1.30;100.00;151700.94;4991074;28;20799;-76
2023/01/25 07:38:13;;;;;;;14.03;10.07;;;;;;;1.29;100.00;151698.38;4989338;28;20463;-76
2023/01/25 07:40:40;;;;;;;13.23;9.10;;;;;;;1.27;100.00;151693.22;4989381;28;20489;-76
2023/01/25 07:43:07;;;;;;;18.23;11.37;;;;;;;1.26;100.00;151691.94;4988259;28;20516;-76
2023/01/25 07:45:37;;;;;;;15.20;10.47;;;;;;;1.27;100.00;151693.22;4981928;28;20530;-76
2023/01/25 07:48:09;;;;;;;16.20;9.43;;;;;;;1.22;100.00;151682.94;4989099;28;20470;-76
2023/01/25 07:50:36;;;;;;;19.20;10.20;;;;;;;1.25;100.00;151689.34;5001704;28;20471;-76
2023/01/25 07:53:02;;;;;;;16.20;10.70;;;;;;;1.20;100.00;151677.81;4991928;28;20470;-76
2023/01/25 07:55:29;;;;;;;17.00;10.80;;;;;;;1.21;100.00;151680.41;4988669;28;20451;-76
2023/01/25 07:57:56;;;;;;;17.87;10.90;;;;;;;1.20;100.00;151677.81;4986852;28;20455;-76
2023/01/25 08:00:22;;;;;;;17.80;11.77;;;;;;;1.18;100.00;151672.69;4981454;28;20476;-76
2023/01/25 08:02:51;;;;;;;12.70;9.20;;;;;;;1.19;100.00;151675.22;4985671;28;20541;-76
2023/01/25 08:05:18;;;;;;;17.77;12.17;;;;;;;1.27;100.00;151693.22;4983860;28;20555;-76
2023/01/25 08:07:45;;;;;;;22.00;14.60;;;;;;;1.24;100.00;151688.06;4985626;28;20455;-76
2023/01/25 08:10:12;;;;;;;20.83;14.23;;;;;;;1.29;100.00;151698.38;4984162;28;20480;-76
2023/01/25 08:12:38;;;;;;;21.73;14.60;;;;;;;1.22;100.00;151682.94;4988009;28;20601;-76
2023/01/25 08:15:07;;;;;;;26.83;16.00;;;;;;;1.22;100.00;151682.94;4989615;28;20447;-76
2023/01/25 08:17:33;;;;;;;24.37;16.97;;;;;;;1.21;100.00;151680.41;4985400;28;20456;-76
2023/01/25 08:20:03;;;;;;;18.40;11.20;;;;;;;1.26;100.00;151690.66;4987279;28;20824;-75
2023/01/25 08:22:30;;;;;;;15.30;10.90;;;;;;;1.26;100.00;151690.66;4982791;28;20509;-76
2023/01/25 08:24:56;;;;;;;15.30;11.10;;;;;;;1.20;100.00;151677.81;4985732;28;20455;-75
2023/01/25 08:27:23;;;;;;;14.60;10.67;;;;;;;1.27;100.00;151693.22;4987391;28;20455;-76
2023/01/25 08:29:52;;;;;;;16.93;11.80;;;;;;;1.32;100.00;151706.06;5002034;28;20450;-76
2023/01/25 08:32:19;;;;;;;21.23;12.50;;;;;;;1.37;100.00;151718.91;4981532;28;20468;-76
2023/01/25 08:34:46;;;;;;;16.77;10.40;;;;;;;1.35;100.00;151713.78;4985162;28;20554;-76
2023/01/25 08:37:14;;;;;;;18.00;12.40;;;;;;;1.37;100.00;151718.91;4981524;28;20461;-75
2023/01/25 08:39:40;;;;;;;19.13;12.50;;;;;;;1.41;100.00;151730.47;4982616;28;20473;-76
2023/01/25 08:42:07;;;;;;;20.67;13.73;;;;;;;1.32;100.00;151706.06;4977088;28;20558;-76
2023/01/25 08:44:34;;;;;;;16.97;11.93;;;;;;;1.40;100.00;151726.63;4979523;28;20490;-76
2023/01/25 08:47:01;;;;;;;21.70;13.57;;;;;;;1.42;100.00;151731.75;4982905;28;20658;-76
2023/01/25 08:49:27;;;;;;;14.27;9.60;;;;;;;1.33;100.00;151708.63;4983174;28;20453;-76
2023/01/25 08:51:54;;;;;;;18.43;12.10;;;;;;;1.30;100.00;151700.94;4987850;28;20451;-76
2023/01/25 08:54:23;;;;;;;16.80;12.33;;;;;;;1.32;100.00;151706.06;4987057;28;20616;-76
2023/01/25 08:56:49;;;;;;;19.10;13.53;;;;;;;1.37;100.00;151718.91;4986141;28;20973;-77
2023/01/25 08:59:16;;;;;;;17.47;11.90;;;;;;;1.36;100.00;151716.31;4984227;28;21174;-76
2023/01/25 09:01:43;;;;;;;18.13;12.60;;;;;;;1.39;100.00;151724.03;4981399;28;20565;-76
2023/01/25 09:04:09;;;;;;;15.57;10.40;;;;;;;1.36;100.00;151717.63;4986571;28;20450;-76
2023/01/25 09:06:36;;;;;;;17.43;12.50;;;;;;;1.36;100.00;151716.31;4973328;28;20466;-76
2023/01/25 09:09:04;;;;;;;21.53;15.17;;;;;;;1.33;100.00;151708.63;4980985;28;20687;-76
2023/01/25 09:11:33;;;;;;;17.40;11.20;;;;;;;1.34;100.00;151711.19;4985378;28;20451;-77
2023/01/25 09:14:00;;;;;;;18.00;12.83;;;;;;;1.33;100.00;151709.91;4986809;28;20506;-76
2023/01/25 09:16:28;;;;;;;15.57;11.80;;;;;;;1.41;100.00;151729.16;4984651;28;20804;-76
2023/01/25 09:18:56;;;;;;;18.40;12.20;;;;;;;1.41;100.00;151729.16;4986662;28;20761;-76
2023/01/25 09:21:23;;;;;;;15.23;11.57;;;;;;;1.39;100.00;151725.34;4980095;28;20470;-76
2023/01/25 09:23:50;;;;;;;21.70;14.77;;;;;;;1.39;100.00;151725.34;4980229;28;20538;-76
2023/01/25 09:26:17;;;;;;;22.30;14.00;;;;;;;1.40;100.00;151726.63;4981333;28;20450;-76
2023/01/25 09:28:48;;;;;;;19.27;15.80;;;;;;;1.43;100.00;151735.59;4972304;28;20459;-77
2023/01/25 09:31:15;;;;;;;20.50;12.63;;;;;;;1.39;100.00;151725.34;4988600;28;20447;-76
2023/01/25 09:34:00;;;;;;;23.37;15.73;;;;;;;1.38;100.00;151722.75;5002130;28;20449;-76
2023/01/25 09:36:27;;;;;;;25.57;16.60;;;;;;;1.38;100.00;151722.75;4977656;28;20450;-76
2023/01/25 09:38:55;;;;;;;17.73;11.87;;;;;;;1.33;100.00;151708.63;4987393;28;20462;-77
2023/01/25 09:41:30;;;;;;;20.17;13.70;;;;;;;1.35;100.00;151715.03;4984345;28;20478;-76
2023/01/25 09:44:11;;;;;;;19.77;12.20;;;;;;;1.38;100.00;151721.50;4982088;28;20631;-76
2023/01/25 09:46:41;;;;;;;18.70;14.60;;;;;;;1.34;100.00;151711.19;4999758;28;20457;-76
2023/01/25 09:49:21;;;;;;;20.03;12.57;;;;;;;1.34;100.00;151711.19;4982270;28;20506;-76
2023/01/25 09:52:00;;;;;;;21.63;14.33;;;;;;;1.32;100.00;151706.06;4964923;28;20447;-76
2023/01/25 09:54:28;;;;;;;19.50;12.63;;;;;;;1.39;100.00;151725.34;4982921;28;20513;-76
2023/01/25 09:56:55;;;;;;;18.70;11.87;;;;;;;1.39;100.00;151724.03;4988374;28;20473;-76
2023/01/25 09:59:29;;;;;;;17.47;12.30;;;;;;;1.35;100.00;151713.78;4969751;28;20456;-76
2023/01/25 10:01:58;;;;;;;15.63;11.07;;;;;;;1.30;100.00;151700.94;4986319;28;20467;-76
2023/01/25 10:04:27;;;;;;;18.33;11.10;;;;;;;1.28;100.00;151695.78;4981138;28;20442;-76
2023/01/25 10:06:57;;;;;;;20.30;12.73;;;;;;;1.29;100.00;151698.38;4979252;28;20556;-76
2023/01/25 10:09:32;;;;;;;16.90;11.07;;;;;;;1.31;100.00;151703.50;4981270;28;20457;-76
2023/01/25 10:12:02;;;;;;;15.67;10.20;;;;;;;1.33;100.00;151709.91;4980800;28;20977;-76
2023/01/25 10:14:34;;;;;;;17.03;10.90;;;;;;;1.35;100.00;151715.03;4980504;28;20446;-76
2023/01/25 10:17:06;;;;;;;17.07;11.40;;;;;;;1.34;100.00;151711.19;4984727;28;20456;-76
2023/01/25 10:19:45;;;;;;;19.10;12.17;;;;;;;1.40;100.00;151726.63;5000682;28;20453;-76
2023/01/25 10:22:15;;;;;;;17.57;11.03;;;;;;;1.35;100.00;151713.78;4985861;28;20451;-76
2023/01/25 10:25:06;;;;;;;13.90;11.13;;;;;;;1.31;100.00;151703.50;4979609;28;20954;-76
2023/01/25 10:27:37;;;;;;;16.47;10.23;;;;;;;1.23;100.00;151684.22;4980647;28;20447;-76
2023/01/25 10:30:20;;;;;;;17.07;11.57;;;;;;;1.31;100.00;151703.50;4984812;28;20935;-76
2023/01/25 10:32:47;;;;;;;18.27;11.23;;;;;;;1.30;100.00;151700.94;4985910;28;20938;-76
2023/01/25 10:35:16;;;;;;;17.63;11.30;;;;;;;1.44;100.00;151738.19;4983952;28;20781;-76
2023/01/25 10:37:43;;;;;;;17.80;12.40;;;;;;;1.43;100.00;151734.34;4983615;28;21693;-76
2023/01/25 10:40:16;;;;;;;13.43;10.37;;;;;;;1.36;100.00;151716.31;4986844;28;21462;-76
2023/01/25 10:42:46;;;;;;;17.23;10.83;;;;;;;1.37;100.00;151718.91;4984528;28;20488;-76
2023/01/25 10:45:16;;;;;;;14.93;11.30;;;;;;;1.40;100.00;151727.94;4990606;28;20471;-76
2023/01/25 10:47:44;;;;;;;15.93;11.40;;;;;;;1.41;100.00;151729.16;4988470;28;20468;-76
2023/01/25 10:50:58;;;;;;;15.43;11.33;;;;;;;1.40;100.00;151727.94;4986834;28;20462;-76
2023/01/25 10:53:32;;;;;;;15.57;11.00;;;;;;;1.46;100.00;151742.00;4943413;28;20878;-76
2023/01/25 10:56:11;;;;;;;17.07;12.63;;;;;;;1.49;100.00;151749.72;4965779;28;20483;-76
2023/01/25 10:58:39;;;;;;;14.50;10.83;;;;;;;1.47;100.00;151744.59;4984377;28;20466;-76
2023/01/25 11:01:07;;;;;;;16.77;11.37;;;;;;;1.42;100.00;151733.06;4985176;28;20525;-76
2023/01/25 11:03:36;;;;;;;15.00;9.53;;;;;;;1.45;100.00;151739.47;4971900;28;20904;-76
2023/01/25 11:06:03;;;;;;;16.53;11.90;;;;;;;1.40;100.00;151726.63;4984356;28;20487;-76
2023/01/25 11:08:35;;;;;;;19.00;11.43;;;;;;;1.46;100.00;151742.00;4986729;28;20843;-76
2023/01/25 11:11:15;;;;;;;17.83;10.67;;;;;;;1.40;100.00;151726.63;4986999;28;21490;-76
2023/01/25 11:13:42;;;;;;;16.73;11.63;;;;;;;1.41;100.00;151729.16;4991549;28;20554;-76
2023/01/25 11:16:20;;;;;;;20.73;12.03;;;;;;;1.40;100.00;151726.63;4984531;28;20457;-76
2023/01/25 11:18:52;;;;;;;17.30;11.67;;;;;;;1.37;100.00;151718.91;4972261;28;20500;-76